Martinopolis, Brazil
Current Conditions -  °F | °C
As of 6:00 AM on Monday 20 Oct 2014 (Local Time) from SBDN Reporting Station
Scattered Clouds Scattered Clouds  
Wind Chill: 70°   Ceiling: Unl
Heat Index: 70°   Visibility: 5mi
Dew Point: 66°   Wind: 0mph
Humidity: 88%   Direction: NA
Pressure: 29.97"   Gusts: NA
Location:  22.18°S, 51.2°W
Report Text: SBDN 200900Z 00000KT 8000 FEW040 SCT080 21/19 Q1015
Loading
Personal Weather Stations






























Interactive Weather Map
Tropical Storm Tracking
New forecast layout! Learn more

10-Day Weather Forecast

Advertisements
Track Severe Weather on mobile